Time;durP1;ratioP1;P1;durP2;ratioP2;P2;SDS_P1;SDS_P2;PMS_P1;PMS_P2;Temp;Humidity;BMP_temperature;BMP_pressure;BME280_temperature;BME280_humidity;BME280_pressure;Samples;Min_cycle;Max_cycle;Signal;HPM_P1;HPM_P2
2024/01/22 00:00:58;;;;;;;8.63;4.57;;;;;;;;;;5032416;28;20056;-86
2024/01/22 00:03:24;;;;;;;11.10;4.47;;;;;;;;;;5028195;28;20048;-86
2024/01/22 00:05:50;;;;;;;6.47;4.05;;;;;;;;;;5034805;28;20287;-85
2024/01/22 00:08:17;;;;;;;9.85;4.35;;;;;;;;;;5041626;28;20719;-87
2024/01/22 00:10:43;;;;;;;8.32;5.43;;;;;;;;;;5042969;28;20063;-86
2024/01/22 00:13:09;;;;;;;9.52;4.72;;;;;;;;;;5028541;28;20148;-86
2024/01/22 00:15:35;;;;;;;8.93;4.95;;;;;;;;;;5039432;28;20041;-86
2024/01/22 00:18:01;;;;;;;9.57;5.05;;;;;;;;;;5037759;28;20048;-85
2024/01/22 00:20:27;;;;;;;7.88;3.88;;;;;;;;;;5043624;28;20055;-85
2024/01/22 00:22:53;;;;;;;8.80;4.63;;;;;;;;;;5027614;28;20045;-86
2024/01/22 00:25:19;;;;;;;14.60;4.95;;;;;;;;;;5050140;28;20041;-86
2024/01/22 00:27:45;;;;;;;9.68;4.63;;;;;;;;;;5031742;28;20044;-86
2024/01/22 00:30:11;;;;;;;9.73;4.60;;;;;;;;;;5027511;28;20047;-85
2024/01/22 00:32:37;;;;;;;7.95;4.10;;;;;;;;;;5021598;28;20048;-86
2024/01/22 00:35:03;;;;;;;6.32;4.28;;;;;;;;;;5043872;28;20044;-85
2024/01/22 00:37:29;;;;;;;8.82;4.65;;;;;;;;;;5037009;28;20449;-86
2024/01/22 00:39:57;;;;;;;6.78;4.80;;;;;;;;;;5023582;28;20052;-86
2024/01/22 00:42:23;;;;;;;10.05;4.70;;;;;;;;;;5043354;28;20041;-85
2024/01/22 00:44:49;;;;;;;6.60;3.92;;;;;;;;;;5035653;28;20047;-85
2024/01/22 00:47:15;;;;;;;7.65;4.10;;;;;;;;;;5026883;28;20099;-86
2024/01/22 00:49:42;;;;;;;7.60;4.07;;;;;;;;;;5054528;28;20037;-86
2024/01/22 00:52:08;;;;;;;7.55;3.35;;;;;;;;;;5026787;28;20048;-86
2024/01/22 00:54:34;;;;;;;10.50;4.00;;;;;;;;;;5034103;28;20043;-86
2024/01/22 00:57:00;;;;;;;7.07;4.05;;;;;;;;;;5023560;28;20041;-86
2024/01/22 00:59:26;;;;;;;7.05;3.85;;;;;;;;;;5022907;28;20052;-86
2024/01/22 01:01:52;;;;;;;6.50;3.80;;;;;;;;;;5028353;28;20045;-86
2024/01/22 01:04:19;;;;;;;5.50;4.07;;;;;;;;;;5021712;28;20130;-86
2024/01/22 01:06:45;;;;;;;5.63;3.53;;;;;;;;;;5031261;28;20033;-86
2024/01/22 01:09:11;;;;;;;9.20;3.83;;;;;;;;;;5039309;28;20045;-86
2024/01/22 01:11:37;;;;;;;7.50;3.85;;;;;;;;;;5017624;28;20049;-86
2024/01/22 01:14:03;;;;;;;8.15;4.18;;;;;;;;;;5026756;28;20044;-85
2024/01/22 01:16:29;;;;;;;5.72;2.95;;;;;;;;;;5031830;28;20048;-85
2024/01/22 01:18:55;;;;;;;6.28;4.10;;;;;;;;;;5028555;28;20053;-85
2024/01/22 01:21:22;;;;;;;6.18;3.42;;;;;;;;;;5037726;28;20047;-86
2024/01/22 01:23:51;;;;;;;8.20;4.30;;;;;;;;;;5028334;28;20485;-86
2024/01/22 01:26:17;;;;;;;6.93;3.92;;;;;;;;;;5033300;28;20418;-85
2024/01/22 01:28:43;;;;;;;8.50;4.10;;;;;;;;;;5044665;28;20045;-86
2024/01/22 01:31:09;;;;;;;8.55;3.97;;;;;;;;;;5026402;28;20114;-86
2024/01/22 01:33:35;;;;;;;6.88;4.15;;;;;;;;;;5026296;28;20037;-86
2024/01/22 01:36:01;;;;;;;10.07;4.03;;;;;;;;;;5026123;28;20068;-86
2024/01/22 01:38:27;;;;;;;8.68;4.53;;;;;;;;;;5030670;28;20060;-86
2024/01/22 01:40:53;;;;;;;7.07;4.10;;;;;;;;;;5027464;28;20070;-86
2024/01/22 01:43:20;;;;;;;7.13;4.45;;;;;;;;;;5021856;28;20864;-86
2024/01/22 01:45:46;;;;;;;10.10;4.40;;;;;;;;;;5041792;28;20041;-86
2024/01/22 01:48:13;;;;;;;8.25;4.32;;;;;;;;;;5026711;28;20507;-86
2024/01/22 01:50:39;;;;;;;6.32;4.57;;;;;;;;;;5025400;28;20077;-86
2024/01/22 01:53:05;;;;;;;10.57;4.53;;;;;;;;;;5025986;28;20047;-86
2024/01/22 01:55:31;;;;;;;11.68;4.38;;;;;;;;;;5025293;28;20049;-87
2024/01/22 01:57:58;;;;;;;7.40;4.63;;;;;;;;;;5028126;28;20041;-86
2024/01/22 02:00:24;;;;;;;10.57;5.63;;;;;;;;;;5044070;28;20076;-86
2024/01/22 02:02:50;;;;;;;13.77;5.10;;;;;;;;;;5036457;28;20051;-86
2024/01/22 02:05:16;;;;;;;9.00;4.10;;;;;;;;;;5025173;28;20045;-86
2024/01/22 02:07:43;;;;;;;9.23;4.43;;;;;;;;;;5022125;28;20045;-86
2024/01/22 02:10:15;;;;;;;9.27;4.72;;;;;;;;;;5021596;28;20045;-86
2024/01/22 02:12:41;;;;;;;10.75;5.00;;;;;;;;;;5037052;28;20040;-86
2024/01/22 02:15:08;;;;;;;7.47;4.93;;;;;;;;;;5044598;28;20053;-86
2024/01/22 02:17:34;;;;;;;8.15;4.53;;;;;;;;;;5034690;28;20041;-86
2024/01/22 02:20:00;;;;;;;15.38;5.38;;;;;;;;;;5043676;28;20421;-86
2024/01/22 02:22:26;;;;;;;7.80;4.80;;;;;;;;;;5049236;28;20067;-86
2024/01/22 02:24:52;;;;;;;9.68;4.53;;;;;;;;;;5045718;28;20835;-86
2024/01/22 02:27:18;;;;;;;9.32;4.82;;;;;;;;;;5039488;28;20056;-86
2024/01/22 02:29:44;;;;;;;8.93;5.18;;;;;;;;;;5046750;28;20052;-86
2024/01/22 02:32:10;;;;;;;11.27;5.18;;;;;;;;;;5043818;28;20055;-86
2024/01/22 02:34:37;;;;;;;7.00;3.83;;;;;;;;;;5035699;28;20052;-86
2024/01/22 02:37:03;;;;;;;6.82;3.90;;;;;;;;;;5032867;28;20076;-86
2024/01/22 02:39:30;;;;;;;11.27;4.60;;;;;;;;;;5031037;28;20049;-86
2024/01/22 02:41:57;;;;;;;9.55;5.05;;;;;;;;;;5023466;28;20096;-86
2024/01/22 02:44:23;;;;;;;10.90;4.97;;;;;;;;;;5049061;28;20044;-86
2024/01/22 02:46:49;;;;;;;8.13;4.50;;;;;;;;;;5033953;28;20076;-86
2024/01/22 02:49:15;;;;;;;13.32;4.15;;;;;;;;;;5035130;28;20036;-86
2024/01/22 02:51:44;;;;;;;5.45;4.30;;;;;;;;;;5045777;28;20044;-85
2024/01/22 02:54:12;;;;;;;10.88;4.28;;;;;;;;;;5044123;28;20048;-86
2024/01/22 02:56:39;;;;;;;7.30;4.25;;;;;;;;;;5031115;28;20037;-86
2024/01/22 02:59:05;;;;;;;8.80;4.63;;;;;;;;;;5059488;28;20045;-86
2024/01/22 03:01:31;;;;;;;6.43;4.20;;;;;;;;;;5047042;28;20513;-86
2024/01/22 03:03:57;;;;;;;7.72;4.18;;;;;;;;;;5032626;28;20045;-86
2024/01/22 03:06:23;;;;;;;5.07;3.63;;;;;;;;;;5063035;28;20036;-86
2024/01/22 03:08:49;;;;;;;9.27;4.57;;;;;;;;;;5029290;28;20451;-86
2024/01/22 03:11:15;;;;;;;7.53;4.40;;;;;;;;;;5039735;28;20036;-85
2024/01/22 03:13:42;;;;;;;7.20;4.32;;;;;;;;;;5031515;28;20197;-86
2024/01/22 03:16:08;;;;;;;8.52;5.05;;;;;;;;;;5039840;28;20041;-86
2024/01/22 03:18:34;;;;;;;7.95;5.18;;;;;;;;;;5032239;28;20114;-86
2024/01/22 03:21:03;;;;;;;9.40;3.90;;;9.20;99.90;;;;;;5033514;28;20049;-86
2024/01/22 03:23:29;;;;;;;7.55;4.80;;;;;;;;;;5020096;28;20106;-86
2024/01/22 03:25:55;;;;;;;8.55;4.70;;;;;;;;;;5033206;28;20048;-86
2024/01/22 03:28:21;;;;;;;9.50;5.55;;;;;;;;;;5020375;28;20045;-86
2024/01/22 03:30:47;;;;;;;8.20;5.32;;;;;;;;;;5041369;28;20387;-87
2024/01/22 03:33:13;;;;;;;11.02;5.10;;;;;;;;;;5037283;28;20041;-87
2024/01/22 03:35:39;;;;;;;9.68;4.85;;;;;;;;;;5036782;28;20163;-86
2024/01/22 03:38:05;;;;;;;9.23;5.35;;;;;;;;;;5035885;28;20057;-86
2024/01/22 03:40:31;;;;;;;8.35;4.82;;;;;;;;;;5027735;28;20053;-87
2024/01/22 03:42:57;;;;;;;8.23;4.97;;;;;;;;;;5029481;28;20103;-87
2024/01/22 03:45:23;;;;;;;7.07;4.40;;;;;;;;;;5027614;28;20045;-86
2024/01/22 03:47:49;;;;;;;10.38;5.05;;;;;;;;;;5028854;28;20044;-86
2024/01/22 03:50:15;;;;;;;7.45;4.80;;;;;;;;;;5022813;28;20041;-87
2024/01/22 03:52:41;;;;;;;12.98;4.45;;;;;;;;;;5018255;28;20044;-86
2024/01/22 03:55:08;;;;;;;6.60;5.13;;;;;;;;;;5031496;28;20040;-87
2024/01/22 03:57:34;;;;;;;8.65;4.28;;;;;;;;;;5033017;28;20042;-87
2024/01/22 04:00:00;;;;;;;9.13;4.78;;;;;;;;;;5027095;28;20041;-87
2024/01/22 04:02:26;;;;;;;7.57;5.55;;;;;;;;;;5027597;28;20068;-87
2024/01/22 04:04:53;;;;;;;6.70;4.95;;;;;;;;;;5047858;28;20041;-87
2024/01/22 04:07:19;;;;;;;7.38;4.63;;;;;;;;;;5047600;28;20125;-86
2024/01/22 04:09:45;;;;;;;6.65;4.50;;;;;;;;;;5034160;28;20075;-86
2024/01/22 04:12:12;;;;;;;8.07;4.85;;;;;;;;;;5027963;28;20045;-87
2024/01/22 04:14:38;;;;;;;5.38;4.07;;;;;;;;;;5031101;28;20040;-85
2024/01/22 04:17:04;;;;;;;7.07;5.38;;;;;;;;;;5030450;28;20044;-87
2024/01/22 04:19:30;;;;;;;6.18;4.40;;;;;;;;;;5035509;28;20052;-86
2024/01/22 04:21:56;;;;;;;9.45;5.20;;;;;;;;;;5033502;28;20091;-86
2024/01/22 04:24:22;;;;;;;5.55;4.25;;;;;;;;;;5033103;28;20108;-86
2024/01/22 04:26:48;;;;;;;7.47;4.50;;;;;;;;;;5040544;28;20477;-85
2024/01/22 04:29:14;;;;;;;7.65;5.07;;;;;;;;;;5046421;28;20135;-86
2024/01/22 04:31:40;;;;;;;10.65;4.55;;;;;;;;;;5035352;28;20048;-85
2024/01/22 04:34:06;;;;;;;6.38;4.93;;;;;;;;;;5031804;28;20044;-86
2024/01/22 04:36:32;;;;;;;8.10;5.05;;;;;;;;;;5037991;28;20091;-86
2024/01/22 04:38:58;;;;;;;7.15;4.43;;;;;;;;;;5026744;28;20093;-87
2024/01/22 04:41:24;;;;;;;6.82;4.60;;;;;;;;;;5028122;28;20828;-86
2024/01/22 04:43:51;;;;;;;4.60;3.38;;;;;;;;;;5027021;28;20079;-86
2024/01/22 04:46:17;;;;;;;4.78;4.07;;;;;;;;;;5043792;28;20677;-87
2024/01/22 04:48:43;;;;;;;5.85;4.18;;;;;;;;;;5033249;28;20820;-87
2024/01/22 04:51:09;;;;;;;7.13;3.97;;;;;;;;;;5041667;28;21001;-86
2024/01/22 04:53:36;;;;;;;6.30;4.75;;;;;;;;;;5026673;28;20040;-87
2024/01/22 04:56:02;;;;;;;7.35;4.25;;;;;;;;;;5026216;28;20048;-87
2024/01/22 04:58:28;;;;;;;8.00;4.50;;;;;;;;;;5031242;28;20051;-87
2024/01/22 05:00:54;;;;;;;6.40;3.97;;;;;;;;;;5037459;28;20205;-87
2024/01/22 05:03:20;;;;;;;5.25;3.30;;;;;;;;;;5042338;28;20083;-86
2024/01/22 05:05:46;;;;;;;3.88;2.80;;;;;;;;;;5046772;28;20048;-87
2024/01/22 05:08:12;;;;;;;6.28;3.72;;;;;;;;;;5033097;28;20048;-86
2024/01/22 05:10:38;;;;;;;6.63;3.80;;;;;;;;;;5034981;28;20044;-86
2024/01/22 05:13:04;;;;;;;5.38;3.45;;;;;;;;;;5046443;28;20040;-86
2024/01/22 05:15:30;;;;;;;4.63;2.97;;;;;;;;;;5060602;28;20085;-86
2024/01/22 05:17:56;;;;;;;6.63;2.97;;;;;;;;;;5031853;28;20487;-87
2024/01/22 05:20:22;;;;;;;3.20;2.88;;;;;;;;;;5022978;28;20040;-86
2024/01/22 05:22:48;;;;;;;3.63;3.25;;;;;;;;;;5030840;28;20899;-87
2024/01/22 05:25:14;;;;;;;4.00;2.70;;;;;;;;;;5020297;28;20492;-86
2024/01/22 05:27:47;;;;;;;3.70;2.70;;;10.50;99.90;;;;;;5024249;28;20041;-86
2024/01/22 05:30:13;;;;;;;3.15;2.50;;;;;;;;;;5036355;28;20124;-86
2024/01/22 05:32:40;;;;;;;2.70;2.08;;;;;;;;;;5043033;28;20075;-86
2024/01/22 05:35:06;;;;;;;4.13;2.00;;;;;;;;;;5032167;28;20036;-86
2024/01/22 05:37:32;;;;;;;2.33;1.50;;;;;;;;;;5030572;28;20056;-86
2024/01/22 05:39:58;;;;;;;4.50;1.58;;;;;;;;;;5030331;28;20055;-86
2024/01/22 05:42:24;;;;;;;2.20;1.70;;;;;;;;;;5022413;28;20195;-87
2024/01/22 05:44:50;;;;;;;4.32;1.98;;;;;;;;;;5016401;28;20044;-86
2024/01/22 05:47:16;;;;;;;2.97;1.67;;;;;;;;;;5041714;28;20075;-87
2024/01/22 05:49:42;;;;;;;4.00;1.40;;;;;;;;;;5034097;28;20041;-86
2024/01/22 05:52:08;;;;;;;3.95;1.45;;;;;;;;;;5043094;28;20101;-87
2024/01/22 05:54:34;;;;;;;3.70;1.65;;;;;;;;;;5035215;28;20435;-86
2024/01/22 05:57:00;;;;;;;2.15;1.48;;;;;;;;;;5049979;28;20048;-86
2024/01/22 05:59:26;;;;;;;4.72;1.15;;;;;;;;;;5035268;28;20049;-87
2024/01/22 06:01:54;;;;;;;1.92;1.27;;;11.00;99.90;;;;;;5034972;28;20147;-87
2024/01/22 06:04:20;;;;;;;3.47;1.70;;;;;;;;;;5051482;28;20045;-87
2024/01/22 06:06:46;;;;;;;6.57;1.73;;;;;;;;;;5027253;28;20045;-87
2024/01/22 06:09:12;;;;;;;5.47;1.10;;;;;;;;;;5056476;28;20418;-87
2024/01/22 06:11:38;;;;;;;4.28;1.40;;;;;;;;;;5022441;28;20446;-87
2024/01/22 06:14:04;;;;;;;2.13;1.10;;;;;;;;;;5020871;28;20040;-87
2024/01/22 06:16:30;;;;;;;3.45;1.45;;;;;;;;;;5056107;28;20653;-87
2024/01/22 06:18:56;;;;;;;7.88;1.52;;;;;;;;;;5061781;28;20044;-87
2024/01/22 06:21:22;;;;;;;5.78;1.60;;;;;;;;;;5039936;28;20371;-87
2024/01/22 06:23:48;;;;;;;5.40;1.80;;;;;;;;;;5036942;28;20477;-86
2024/01/22 06:26:16;;;;;;;4.53;1.70;;;;;;;;;;5048121;28;20049;-87
2024/01/22 06:28:42;;;;;;;3.63;1.67;;;;;;;;;;5041303;28;20090;-87
2024/01/22 06:31:08;;;;;;;5.43;1.63;;;;;;;;;;5031875;28;20044;-87
2024/01/22 06:33:35;;;;;;;4.53;1.83;;;;;;;;;;5029558;28;20568;-87
2024/01/22 06:36:01;;;;;;;3.92;2.03;;;;;;;;;;5041603;28;20068;-87
2024/01/22 06:38:27;;;;;;;8.27;1.70;;;;;;;;;;5044616;28;20155;-86
2024/01/22 06:40:54;;;;;;;3.88;1.58;;;;;;;;;;5025189;28;20219;-87
2024/01/22 06:43:20;;;;;;;4.80;1.55;;;;;;;;;;5036734;28;20171;-87
2024/01/22 06:45:46;;;;;;;8.18;1.67;;;;;;;;;;5029690;28;20052;-86
2024/01/22 06:48:12;;;;;;;7.78;2.22;;;;;;;;;;5037178;28;20045;-87
2024/01/22 06:50:39;;;;;;;4.70;1.98;;;;;;;;;;5033644;28;20032;-87
2024/01/22 06:53:05;;;;;;;7.93;2.03;;;;;;;;;;5034475;28;20156;-87
2024/01/22 06:55:31;;;;;;;8.82;2.25;;;;;;;;;;5025039;28;20069;-87
2024/01/22 06:57:57;;;;;;;7.70;2.58;;;;;;;;;;5055728;28;20148;-87
2024/01/22 07:00:23;;;;;;;11.85;2.28;;;;;;;;;;5063793;28;20756;-87
2024/01/22 07:02:49;;;;;;;14.30;3.63;;;;;;;;;;5032034;28;20048;-87
2024/01/22 07:05:16;;;;;;;13.73;3.15;;;;;;;;;;5030405;28;20052;-87
2024/01/22 07:07:42;;;;;;;11.57;2.97;;;;;;;;;;5027249;28;20037;-87
2024/01/22 07:10:08;;;;;;;14.98;2.90;;;10.80;99.90;;;;;;5041722;28;20417;-87
2024/01/22 07:12:41;;;;;;;22.00;3.17;;;10.60;99.90;;;;;;5031860;28;20146;-87
2024/01/22 07:15:12;;;;;;;21.90;4.35;;;10.80;99.90;;;;;;5049206;28;20037;-87
2024/01/22 07:17:39;;;;;;;15.50;3.22;;;;;;;;;;5026470;28;20041;-87
2024/01/22 07:20:05;;;;;;;18.17;3.60;;;10.80;99.90;;;;;;5031466;28;20090;-87
2024/01/22 07:22:32;;;;;;;11.98;3.60;;;;;;;;;;5033373;28;20411;-87
2024/01/22 07:24:59;;;;;;;23.98;4.68;;;10.80;99.90;;;;;;5028420;28;20059;-88
2024/01/22 07:27:25;;;;;;;24.02;4.07;;;;;;;;;;5028572;28;20040;-85
2024/01/22 07:29:51;;;;;;;25.63;4.55;;;;;;;;;;5029970;28;20576;-87
2024/01/22 07:32:17;;;;;;;21.17;4.45;;;;;;;;;;5034738;28;20114;-86
2024/01/22 07:34:43;;;;;;;23.23;5.10;;;;;;;;;;5024440;28;20123;-88
2024/01/22 07:37:09;;;;;;;21.33;4.32;;;;;;;;;;5032998;28;20395;-88
2024/01/22 07:39:35;;;;;;;24.10;4.60;;;;;;;;;;5033928;28;20537;-87
2024/01/22 07:42:01;;;;;;;27.90;5.53;;;;;;;;;;5029362;28;20094;-89
2024/01/22 07:44:27;;;;;;;24.08;5.85;;;;;;;;;;5033151;28;20041;-87
2024/01/22 07:46:53;;;;;;;24.58;4.35;;;;;;;;;;5036673;28;20486;-87
2024/01/22 07:49:19;;;;;;;31.30;5.15;;;;;;;;;;5026141;28;20077;-87
2024/01/22 07:51:45;;;;;;;29.88;4.95;;;;;;;;;;5022169;28;20048;-87
2024/01/22 07:54:11;;;;;;;21.27;5.45;;;;;;;;;;5030952;28;20041;-89
2024/01/22 07:56:37;;;;;;;38.53;5.45;;;;;;;;;;5029153;28;20095;-87
2024/01/22 07:59:03;;;;;;;30.17;5.18;;;;;;;;;;5035921;28;20041;-88
2024/01/22 08:01:29;;;;;;;35.90;6.63;;;;;;;;;;5028711;28;20928;-88
2024/01/22 08:03:55;;;;;;;28.98;4.78;;;;;;;;;;5025083;28;20098;-88
2024/01/22 08:06:21;;;;;;;30.00;5.85;;;;;;;;;;5025854;28;20096;-87
2024/01/22 08:08:47;;;;;;;26.23;7.25;;;;;;;;;;5033744;28;20040;-87
2024/01/22 08:11:13;;;;;;;41.67;7.30;;;;;;;;;;5041909;28;20573;-87
2024/01/22 08:13:39;;;;;;;37.40;6.45;;;;;;;;;;5028010;28;20091;-86
2024/01/22 08:16:05;;;;;;;37.67;6.15;;;;;;;;;;5025531;28;20045;-87
2024/01/22 08:18:32;;;;;;;36.60;5.82;;;;;;;;;;5030135;28;20138;-87
2024/01/22 08:20:58;;;;;;;33.40;5.85;;;;;;;;;;5034997;28;20051;-88
2024/01/22 08:23:24;;;;;;;41.20;6.78;;;;;;;;;;5024771;28;20049;-85
2024/01/22 08:25:50;;;;;;;36.45;7.68;;;;;;;;;;5017031;28;20244;-86
2024/01/22 08:28:16;;;;;;;29.88;5.47;;;;;;;;;;5023639;28;20045;-87
2024/01/22 08:30:42;;;;;;;36.22;6.07;;;;;;;;;;5024027;28;20045;-87
2024/01/22 08:33:08;;;;;;;39.08;6.53;;;;;;;;;;5015831;28;20045;-86
2024/01/22 08:35:34;;;;;;;40.42;6.35;;;;;;;;;;5022984;28;20049;-87
2024/01/22 08:38:00;;;;;;;30.83;6.97;;;;;;;;;;5033078;28;20055;-86
2024/01/22 08:40:28;;;;;;;40.72;7.32;;;;;;;;;;5030855;28;20046;-86
2024/01/22 08:42:54;;;;;;;49.95;7.15;;;;;;;;;;5027642;28;20127;-87
2024/01/22 08:45:22;;;;;;;32.85;6.95;;;10.40;99.90;;;;;;5014858;28;20063;-87
2024/01/22 08:47:49;;;;;;;30.42;7.22;;;10.50;99.90;;;;;;5030677;28;20510;-89
2024/01/22 08:50:21;;;;;;;36.38;6.57;;;10.30;99.90;;;;;;5024341;28;20059;-88
2024/01/22 08:52:47;;;;;;;46.83;6.45;;;10.20;99.90;;;;;;5020284;28;20076;-87
2024/01/22 08:55:15;;;;;;;27.17;6.93;;;10.40;99.90;;;;;;5029115;28;20091;-88
2024/01/22 08:57:41;;;;;;;38.38;6.90;;;;;;;;;;5040998;28;20043;-86
2024/01/22 09:00:10;;;;;;;35.35;6.38;;;10.50;99.90;;;;;;5026787;28;20055;-86
2024/01/22 09:02:39;;;;;;;45.78;7.07;;;;;;;;;;5026214;28;20143;-86
2024/01/22 09:05:14;;;;;;;38.00;7.38;;;10.50;99.90;;;;;;5026554;28;20051;-87
2024/01/22 09:07:41;;;;;;;41.95;7.15;;;;;;;;;;5024728;28;20045;-86
2024/01/22 09:10:08;;;;;;;39.20;6.40;;;;;;;;;;5025958;28;20048;-87
2024/01/22 09:12:35;;;;;;;38.67;7.10;;;10.30;99.90;;;;;;5025953;28;20045;-86
2024/01/22 09:15:01;;;;;;;41.10;6.95;;;10.20;99.90;;;;;;5036300;28;20072;-87
2024/01/22 09:17:28;;;;;;;45.90;6.45;;;;;;;;;;5019699;28;20450;-86
2024/01/22 09:19:54;;;;;;;48.30;7.22;;;;;;;;;;5028175;28;20036;-87
2024/01/22 09:22:20;;;;;;;40.30;8.05;;;;;;;;;;5016696;28;20131;-86
2024/01/22 09:24:46;;;;;;;35.17;8.18;;;;;;;;;;5022817;28;20045;-86
2024/01/22 09:27:12;;;;;;;34.58;6.43;;;;;;;;;;5039863;28;20056;-86
2024/01/22 09:29:38;;;;;;;34.85;6.50;;;;;;;;;;5025171;28;20040;-86
2024/01/22 09:32:04;;;;;;;41.35;5.32;;;;;;;;;;5025222;28;20045;-86
2024/01/22 09:34:30;;;;;;;35.67;6.07;;;;;;;;;;5017721;28;20040;-87
2024/01/22 09:36:57;;;;;;;33.78;6.40;;;;;;;;;;5024479;28;20082;-87
2024/01/22 09:39:23;;;;;;;36.15;6.50;;;;;;;;;;5045091;28;20552;-87
2024/01/22 09:41:51;;;;;;;44.28;8.35;;;10.40;99.90;;;;;;5033162;28;20057;-86
2024/01/22 09:44:17;;;;;;;39.22;6.55;;;;;;;;;;5043098;28;20741;-87
2024/01/22 09:46:43;;;;;;;39.53;8.40;;;;;;;;;;5027117;28;20040;-86
2024/01/22 09:49:09;;;;;;;43.35;8.50;;;;;;;;;;5025625;28;20040;-87
2024/01/22 09:51:36;;;;;;;45.92;8.15;;;;;;;;;;5025491;28;20100;-86
2024/01/22 09:54:09;;;;;;;37.75;7.13;;;10.30;99.90;;;;;;5023215;28;20157;-87
2024/01/22 09:56:36;;;;;;;46.65;9.02;;;10.40;99.90;;;;;;5038052;28;20095;-88
2024/01/22 09:59:17;;;;;;;43.97;8.10;;;11.80;99.90;;;;;;5025567;28;20089;-87
2024/01/22 10:01:43;;;;;;;46.50;9.32;;;;;;;;;;5025096;28;20059;-88
2024/01/22 10:04:11;;;;;;;44.33;9.00;;;10.80;99.90;;;;;;5024389;28;20594;-87
2024/01/22 10:06:37;;;;;;;52.13;8.73;;;;;;;;;;5042379;28;20045;-86
2024/01/22 10:09:03;;;;;;;45.47;8.80;;;;;;;;;;5016475;28;20532;-86
2024/01/22 10:11:31;;;;;;;52.63;10.45;;;10.50;99.90;;;;;;5025285;28;20406;-87
2024/01/22 10:13:57;;;;;;;53.78;9.25;;;;;;;;;;5023151;28;20036;-88
2024/01/22 10:16:27;;;;;;;47.08;9.38;;;10.40;99.90;;;;;;5023913;28;20045;-88
2024/01/22 10:18:59;;;;;;;53.28;9.55;;;10.40;99.90;;;;;;5023267;28;20052;-86
2024/01/22 10:21:26;;;;;;;55.50;10.02;;;;;;;;;;5025113;28;20079;-87
2024/01/22 10:24:00;;;;;;;56.88;10.60;;;10.50;99.90;;;;;;5038137;28;20041;-87
2024/01/22 10:26:26;;;;;;;53.00;9.50;;;;;;;;;;5022960;28;20056;-89
2024/01/22 10:28:52;;;;;;;68.75;12.07;;;;;;;;;;5031695;28;20064;-88
2024/01/22 10:31:18;;;;;;;55.03;11.13;;;;;;;;;;5035038;28;20056;-88
2024/01/22 10:33:45;;;;;;;59.15;10.23;;;10.80;99.90;;;;;;5032960;28;20151;-88
2024/01/22 10:36:19;;;;;;;62.83;9.80;;;10.80;99.90;;;;;;5041571;28;20045;-87
2024/01/22 10:38:46;;;;;;;42.30;8.80;;;10.80;99.90;;;;;;5030322;28;20052;-87
2024/01/22 10:41:19;;;;;;;51.35;9.15;;;10.80;99.90;;;;;;5043537;28;20053;-88
2024/01/22 10:43:46;;;;;;;61.47;10.40;;;;;;;;;;5025992;28;20549;-87
2024/01/22 10:46:12;;;;;;;41.28;8.40;;;;;;;;;;5024702;28;20045;-88
2024/01/22 10:48:40;;;;;;;48.75;8.95;;;11.00;99.90;;;;;;5036702;28;20486;-89
2024/01/22 10:51:06;;;;;;;34.88;7.63;;;;;;;;;;5030125;28;20837;-88
2024/01/22 10:53:32;;;;;;;49.53;8.25;;;;;;;;;;5029599;28;20047;-88
2024/01/22 10:56:07;;;;;;;45.65;8.35;;;10.90;99.90;;;;;;5030564;28;20041;-89
2024/01/22 10:58:44;;;;;;;36.65;7.32;;;10.80;99.90;;;;;;5030864;28;20438;-86
2024/01/22 11:01:17;;;;;;;37.85;8.75;;;;;;;;;;5028708;28;20052;-86
2024/01/22 11:03:52;;;;;;;55.28;8.30;;;11.00;99.90;;;;;;5030434;28;20052;-88
2024/01/22 11:06:22;;;;;;;38.97;7.05;;;11.20;99.90;;;;;;5021863;28;20091;-87
2024/01/22 11:08:55;;;;;;;38.97;7.63;;;10.90;99.90;;;;;;5044169;28;20040;-87
2024/01/22 11:11:24;;;;;;;34.92;7.30;;;11.00;99.90;;;;;;5025760;28;20106;-86
2024/01/22 11:13:52;;;;;;;47.67;7.80;;;11.10;99.90;;;;;;5026768;28;20045;-88
2024/01/22 11:16:19;;;;;;;30.23;6.25;;;10.90;99.90;;;;;;5025006;28;20074;-87
2024/01/22 11:19:02;;;;;;;30.27;6.80;;;11.20;99.90;;;;;;5026360;28;20040;-87
2024/01/22 11:21:39;;;;;;;38.60;6.95;;;11.10;99.90;;;;;;5021608;28;20521;-87
2024/01/22 11:24:26;;;;;;;28.05;6.45;;;11.30;99.90;;;;;;5043595;28;20052;-87
2024/01/22 11:26:52;;;;;;;33.50;6.03;;;;;;;;;;5044448;28;20092;-88
2024/01/22 11:29:29;;;;;;;29.30;5.18;;;11.20;99.90;;;;;;5025793;28;20123;-87
2024/01/22 11:31:56;;;;;;;36.55;6.72;;;11.50;99.90;;;;;;5022081;28;20044;-86
2024/01/22 11:34:57;;;;;;;30.20;6.72;;;11.10;99.90;;;;;;5022651;28;20048;-88
2024/01/22 11:37:34;;;;;;;31.73;7.13;;;11.20;99.90;;;;;;5022745;28;20087;-87
2024/01/22 11:40:00;;;;;;;28.15;4.95;;;;;;;;;;5018614;28;20049;-87
2024/01/22 11:42:28;;;;;;;31.48;5.82;;;;;;;;;;5020985;28;20555;-88
2024/01/22 11:44:54;;;;;;;35.30;6.38;;;;;;;;;;5021749;28;20131;-86
2024/01/22 11:47:22;;;;;;;35.58;6.78;;;11.30;99.90;;;;;;5034494;28;20036;-87
2024/01/22 11:49:48;;;;;;;30.98;5.32;;;;;;;;;;5032277;28;20059;-87
2024/01/22 11:52:20;;;;;;;27.63;5.22;;;11.40;99.90;;;;;;5030738;28;20149;-88
2024/01/22 11:54:52;;;;;;;36.75;5.63;;;11.40;99.90;;;;;;5039860;28;20064;-86
2024/01/22 11:57:18;;;;;;;23.67;5.35;;;;;;;;;;5034351;28;20041;-86
2024/01/22 12:00:05;;;;;;;31.08;5.22;;;11.70;99.90;;;;;;5046388;28;20036;-86
2024/01/22 12:02:34;;;;;;;26.38;5.07;;;11.50;99.90;;;;;;5032322;28;20463;-86
2024/01/22 12:05:06;;;;;;;25.98;4.78;;;11.40;99.90;;;;;;5023172;28;20077;-87
2024/01/22 12:07:37;;;;;;;25.30;4.65;;;11.40;99.90;;;;;;5031914;28;20041;-86
2024/01/22 12:10:06;;;;;;;23.63;5.53;;;;;;;;;;5046341;28;20052;-87
2024/01/22 12:12:33;;;;;;;25.70;4.32;;;;;;;;;;5033282;28;20045;-87
2024/01/22 12:14:59;;;;;;;18.15;4.70;;;;;;;;;;5028066;28;20052;-87
2024/01/22 12:17:25;;;;;;;20.17;3.95;;;;;;;;;;5029903;28;20132;-86
2024/01/22 12:19:56;;;;;;;19.08;4.65;;;11.40;99.90;;;;;;5029499;28;20049;-86
2024/01/22 12:22:23;;;;;;;28.08;4.90;;;11.20;99.90;;;;;;5027131;28;20037;-87
2024/01/22 12:25:09;;;;;;;20.38;4.45;;;11.30;99.90;;;;;;5029891;28;20045;-87
2024/01/22 12:27:35;;;;;;;29.08;4.75;;;;;;;;;;5027920;28;20041;-86
2024/01/22 12:30:08;;;;;;;20.73;4.55;;;11.40;99.90;;;;;;5042413;28;20083;-87
2024/01/22 12:32:37;;;;;;;20.63;5.03;;;11.50;99.90;;;;;;5024694;28;20045;-87
2024/01/22 12:35:03;;;;;;;20.13;4.28;;;;;;;;;;5028076;28;20589;-87
2024/01/22 12:37:31;;;;;;;22.23;4.43;;;11.40;99.90;;;;;;5027124;28;20052;-86
2024/01/22 12:40:14;;;;;;;16.48;4.20;;;11.40;99.90;;;;;;5025796;28;20168;-86
2024/01/22 12:42:45;;;;;;;22.65;4.13;;;11.50;99.90;;;;;;5034506;28;20052;-85
2024/01/22 12:45:15;;;;;;;20.52;4.47;;;;;;;;;;5040963;28;20048;-86
2024/01/22 12:47:42;;;;;;;19.50;4.20;;;11.20;99.90;;;;;;5029209;28;20497;-86
2024/01/22 12:50:09;;;;;;;24.88;4.38;;;11.20;99.90;;;;;;5027256;28;20051;-86
2024/01/22 12:52:35;;;;;;;23.35;5.25;;;;;;;;;;5021739;28;20072;-87
2024/01/22 12:55:01;;;;;;;21.20;4.53;;;;;;;;;;5041226;28;20048;-88
2024/01/22 12:57:28;;;;;;;23.77;4.68;;;;;;;;;;5012559;28;20553;-86
2024/01/22 12:59:54;;;;;;;26.55;4.85;;;;;;;;;;5024529;28;20066;-86
2024/01/22 13:02:20;;;;;;;29.55;4.68;;;;;;;;;;5040014;28;20514;-87
2024/01/22 13:04:48;;;;;;;21.90;4.65;;;;;;;;;;5024281;28;20048;-87
2024/01/22 13:07:14;;;;;;;27.15;4.88;;;;;;;;;;5042974;28;20102;-87
2024/01/22 13:09:40;;;;;;;20.85;4.50;;;;;;;;;;5020705;28;20157;-87
2024/01/22 13:12:08;;;;;;;20.75;4.47;;;;;;;;;;5020076;28;20041;-87
2024/01/22 13:14:34;;;;;;;20.00;4.25;;;;;;;;;;5039715;28;20056;-87
2024/01/22 13:17:04;;;;;;;18.83;4.82;;;;;;;;;;5026809;28;20048;-87
2024/01/22 13:19:31;;;;;;;20.58;4.38;;;11.10;99.90;;;;;;5027475;28;20072;-86
2024/01/22 13:21:58;;;;;;;23.20;5.18;;;;;;;;;;5031753;28;20045;-86
2024/01/22 13:24:25;;;;;;;25.98;5.32;;;;;;;;;;5028357;28;20049;-88
2024/01/22 13:26:51;;;;;;;28.17;4.88;;;;;;;;;;5027300;28;20044;-87
2024/01/22 13:29:17;;;;;;;26.60;5.05;;;;;;;;;;5016732;28;20051;-88
2024/01/22 13:31:44;;;;;;;19.17;4.22;;;;;;;;;;5027408;28;20129;-87
2024/01/22 13:34:10;;;;;;;25.40;5.00;;;;;;;;;;5023763;28;20064;-87
2024/01/22 13:36:36;;;;;;;25.00;5.07;;;;;;;;;;5006365;28;20041;-86
2024/01/22 13:39:02;;;;;;;20.92;4.32;;;;;;;;;;5031004;28;20067;-87
2024/01/22 13:41:29;;;;;;;24.55;5.65;;;;;;;;;;5014032;28;20083;-88
2024/01/22 13:43:56;;;;;;;29.90;4.38;;;;;;;;;;5024729;28;20060;-87
2024/01/22 13:46:25;;;;;;;19.67;3.88;;;10.80;99.90;;;;;;5041364;28;20059;-88
2024/01/22 13:48:51;;;;;;;29.65;5.10;;;;;;;;;;5023925;28;20082;-87
2024/01/22 13:51:17;;;;;;;28.70;5.20;;;;;;;;;;5017932;28;20181;-87
2024/01/22 13:53:47;;;;;;;25.52;5.80;;;;;;;;;;5028033;28;20155;-86
2024/01/22 13:56:13;;;;;;;24.23;4.47;;;;;;;;;;5011325;28;20130;-87
2024/01/22 13:58:39;;;;;;;29.13;5.35;;;;;;;;;;5029914;28;20040;-86
2024/01/22 14:01:08;;;;;;;23.05;6.60;;;10.40;99.90;;;;;;5025440;28;20558;-87
2024/01/22 14:03:35;;;;;;;16.83;4.45;;;10.50;99.90;;;;;;5038488;28;20103;-87
2024/01/22 14:06:01;;;;;;;21.67;4.22;;;;;;;;;;5042350;28;20044;-86
2024/01/22 14:08:28;;;;;;;35.00;5.90;;;;;;;;;;5042468;28;20508;-87
2024/01/22 14:10:54;;;;;;;32.97;5.32;;;;;;;;;;5033216;28;20049;-87